createdAt,value
2018-10-11T00:01:14.516Z,44.53
2018-10-11T00:03:42.694Z,42.33
2018-10-11T00:06:10.916Z,42.63
2018-10-11T00:08:39.102Z,41.80
2018-10-11T00:11:07.556Z,37.23
2018-10-11T00:13:35.733Z,54.23
2018-10-11T00:16:03.902Z,46.27
2018-10-11T00:18:32.129Z,45.00
2018-10-11T00:21:00.316Z,43.83
2018-10-11T00:23:28.496Z,44.37
2018-10-11T00:25:56.767Z,43.40
2018-10-11T00:28:25.045Z,44.87
2018-10-11T00:30:53.213Z,43.67
2018-10-11T00:33:21.419Z,44.13
2018-10-11T00:35:49.591Z,41.10
2018-10-11T00:38:17.802Z,50.50
2018-10-11T00:40:45.967Z,41.30
2018-10-11T00:43:14.217Z,42.87
2018-10-11T00:45:42.435Z,47.97
2018-10-11T00:48:11.168Z,43.37
2018-10-11T00:50:39.480Z,39.13
2018-10-11T00:53:07.666Z,41.03
2018-10-11T00:55:35.805Z,43.17
2018-10-11T00:58:04.108Z,42.47
2018-10-11T01:00:32.265Z,42.20
2018-10-11T01:03:00.439Z,38.60
2018-10-11T01:05:28.667Z,47.50
2018-10-11T01:07:56.932Z,42.00
2018-10-11T01:10:25.324Z,43.10
2018-10-11T01:12:53.584Z,44.07
2018-10-11T01:15:21.854Z,41.57
2018-10-11T01:17:50.016Z,39.53
2018-10-11T01:20:18.165Z,43.70
2018-10-11T01:22:46.870Z,44.23
2018-10-11T01:25:15.087Z,38.00
2018-10-11T01:27:43.308Z,40.13
2018-10-11T01:30:11.572Z,42.13
2018-10-11T01:32:39.640Z,42.83
2018-10-11T01:35:08.187Z,42.83
2018-10-11T01:37:36.347Z,42.67
2018-10-11T01:40:04.517Z,40.70
2018-10-11T01:42:32.692Z,47.13
2018-10-11T01:45:00.841Z,39.00
2018-10-11T01:47:28.980Z,42.73
2018-10-11T01:49:57.181Z,41.67
2018-10-11T01:52:25.393Z,49.03
2018-10-11T01:54:53.604Z,37.57
2018-10-11T01:57:21.809Z,43.77
2018-10-11T01:59:49.987Z,43.13
2018-10-11T02:02:18.198Z,49.37
2018-10-11T02:04:46.366Z,40.40
2018-10-11T02:07:14.615Z,40.73
2018-10-11T02:09:42.808Z,40.00
2018-10-11T02:12:11.064Z,43.93
2018-10-11T02:14:39.224Z,40.07
2018-10-11T02:17:07.386Z,41.40
2018-10-11T02:19:35.568Z,45.63
2018-10-11T02:22:03.732Z,40.97
2018-10-11T02:24:31.930Z,42.70
2018-10-11T02:27:00.174Z,45.90
2018-10-11T02:29:28.421Z,41.90
2018-10-11T02:31:56.600Z,44.13
2018-10-11T02:34:24.778Z,41.83
2018-10-11T02:36:52.933Z,43.63
2018-10-11T02:39:21.090Z,45.40
2018-10-11T02:41:49.199Z,40.47
2018-10-11T02:44:17.427Z,43.70
2018-10-11T02:46:45.616Z,42.80
2018-10-11T02:49:13.774Z,42.20
2018-10-11T02:51:42.000Z,44.77
2018-10-11T02:54:10.185Z,40.90
2018-10-11T02:56:38.316Z,44.30
2018-10-11T02:59:17.652Z,47.07
2018-10-11T03:01:45.825Z,43.33
2018-10-11T03:04:14.066Z,42.13
2018-10-11T03:06:42.377Z,42.63
2018-10-11T03:09:11.153Z,45.50
2018-10-11T03:11:39.566Z,39.03
2018-10-11T03:14:07.720Z,46.30
2018-10-11T03:19:35.589Z,41.83
2018-10-11T03:22:03.829Z,44.83
2018-10-11T03:24:31.993Z,40.83
2018-10-11T03:27:00.993Z,41.67
2018-10-11T03:29:30.523Z,40.97
2018-10-11T03:31:58.689Z,50.50
2018-10-11T03:34:28.270Z,43.97
2018-10-11T03:36:57.431Z,53.23
2018-10-11T03:39:25.931Z,50.23
2018-10-11T03:41:54.537Z,44.63
2018-10-11T03:44:22.708Z,39.27
2018-10-11T03:46:50.881Z,45.37
2018-10-11T03:49:19.628Z,39.27
2018-10-11T03:51:48.294Z,45.43
2018-10-11T03:54:16.473Z,44.27
2018-10-11T03:56:44.647Z,45.07
2018-10-11T03:59:13.229Z,41.33
2018-10-11T04:01:41.505Z,42.13
2018-10-11T04:04:09.679Z,42.87
2018-10-11T04:06:37.861Z,43.50
2018-10-11T04:09:06.950Z,48.97
2018-10-11T04:11:35.178Z,46.80
2018-10-11T04:14:03.355Z,45.53
2018-10-11T04:16:31.547Z,47.03
2018-10-11T04:18:59.704Z,55.60
2018-10-11T04:21:28.084Z,46.83
2018-10-11T04:23:56.300Z,46.60
2018-10-11T04:26:24.510Z,43.13
2018-10-11T04:28:52.720Z,41.37
2018-10-11T04:31:20.994Z,39.70
2018-10-11T04:33:49.256Z,49.03
2018-10-11T04:36:17.595Z,49.57
2018-10-11T04:38:46.060Z,41.23
2018-10-11T04:41:14.250Z,44.53
2018-10-11T04:43:42.509Z,45.03
2018-10-11T04:46:10.693Z,42.73
2018-10-11T04:48:38.857Z,42.73
2018-10-11T04:51:07.066Z,42.63
2018-10-11T04:53:35.277Z,42.70
2018-10-11T04:56:03.401Z,36.60
2018-10-11T04:58:31.548Z,42.67
2018-10-11T05:00:59.776Z,42.77
2018-10-11T05:03:28.116Z,44.93
2018-10-11T05:05:56.423Z,43.17
2018-10-11T05:08:24.698Z,43.70
2018-10-11T05:10:52.939Z,44.33
2018-10-11T05:13:37.296Z,47.37
2018-10-11T05:16:05.521Z,41.50
2018-10-11T05:18:34.554Z,45.83
2018-10-11T05:21:02.869Z,43.47
2018-10-11T05:23:31.195Z,46.17
2018-10-11T05:25:59.401Z,51.30
2018-10-11T05:28:27.557Z,43.77
2018-10-11T05:30:56.297Z,41.77
2018-10-11T05:33:24.828Z,42.87
2018-10-11T05:35:53.126Z,43.20
2018-10-11T05:38:21.415Z,52.93
2018-10-11T05:40:49.563Z,45.27
2018-10-11T05:43:17.995Z,43.57
2018-10-11T05:45:50.737Z,45.93
2018-10-11T05:48:18.901Z,46.23
2018-10-11T05:50:47.177Z,36.70
2018-10-11T05:53:15.410Z,44.30
2018-10-11T05:55:43.623Z,43.47
2018-10-11T05:58:12.409Z,54.93
2018-10-11T06:00:40.656Z,41.43
2018-10-11T06:03:09.008Z,42.70
2018-10-11T06:05:37.227Z,41.03
2018-10-11T06:08:05.650Z,41.63
2018-10-11T06:10:36.224Z,38.97
2018-10-11T06:13:06.100Z,44.07
2018-10-11T06:15:34.920Z,43.70
2018-10-11T06:18:03.408Z,44.03
2018-10-11T06:20:32.403Z,40.03
2018-10-11T06:23:00.644Z,43.27
2018-10-11T06:25:28.891Z,41.23
2018-10-11T06:27:57.307Z,44.10
2018-10-11T06:30:25.967Z,35.13
2018-10-11T06:32:54.175Z,43.93
2018-10-11T06:35:23.267Z,42.40
2018-10-11T06:37:51.998Z,40.23
2018-10-11T06:40:21.139Z,38.23
2018-10-11T06:42:49.858Z,36.87
2018-10-11T06:45:17.929Z,43.33
2018-10-11T06:47:49.066Z,35.67
2018-10-11T06:50:17.381Z,35.90
2018-10-11T06:52:45.647Z,39.23
2018-10-11T06:55:14.821Z,43.93
2018-10-11T06:57:43.098Z,45.13
2018-10-11T07:00:11.354Z,41.43
2018-10-11T07:02:39.663Z,38.77
2018-10-11T07:05:07.956Z,36.70
2018-10-11T07:07:36.202Z,40.20
2018-10-11T07:10:04.432Z,32.53
2018-10-11T07:12:32.760Z,36.03
2018-10-11T07:15:01.072Z,39.87
2018-10-11T07:17:31.976Z,40.53
2018-10-11T07:20:01.232Z,38.47
2018-10-11T07:22:29.642Z,33.27
2018-10-11T07:24:58.083Z,37.87
2018-10-11T07:27:26.354Z,33.10
2018-10-11T07:29:54.563Z,36.20
2018-10-11T07:32:22.830Z,29.90
2018-10-11T07:34:52.876Z,37.67
2018-10-11T07:37:21.160Z,37.80
2018-10-11T07:39:49.400Z,42.47
2018-10-11T07:42:17.680Z,34.03
2018-10-11T07:44:46.251Z,37.07
2018-10-11T07:47:14.509Z,33.50
2018-10-11T07:49:48.666Z,34.97
2018-10-11T07:52:18.017Z,39.00
2018-10-11T07:54:46.929Z,33.77
2018-10-11T07:57:15.168Z,36.37
2018-10-11T07:59:43.352Z,33.30
2018-10-11T08:02:11.520Z,38.90
2018-10-11T08:04:39.799Z,34.53
2018-10-11T08:07:08.434Z,31.30
2018-10-11T08:09:36.769Z,32.57
2018-10-11T08:12:09.060Z,27.93
2018-10-11T08:14:37.324Z,30.27
2018-10-11T08:17:05.842Z,35.87
2018-10-11T08:19:33.953Z,34.13
2018-10-11T08:22:02.036Z,33.07
2018-10-11T08:24:30.310Z,32.23
2018-10-11T08:26:58.632Z,35.03
2018-10-11T08:29:26.700Z,31.03
2018-10-11T08:31:54.872Z,30.43
2018-10-11T08:34:23.077Z,27.33
2018-10-11T08:36:51.242Z,37.63
2018-10-11T08:39:19.432Z,29.33
2018-10-11T08:41:47.668Z,28.40
2018-10-11T08:44:16.117Z,30.33
2018-10-11T08:46:44.216Z,31.57
2018-10-11T08:49:12.456Z,33.67
2018-10-11T08:51:40.568Z,30.17
2018-10-11T08:54:14.821Z,26.37
2018-10-11T08:56:43.172Z,34.27
2018-10-11T08:59:12.034Z,24.93
2018-10-11T09:01:40.247Z,25.87
2018-10-11T09:04:08.805Z,30.63
2018-10-11T09:06:37.169Z,29.73
2018-10-11T09:09:07.126Z,34.47
2018-10-11T09:11:35.875Z,32.43
2018-10-11T09:14:04.149Z,29.10
2018-10-11T09:16:34.398Z,24.73
2018-10-11T09:19:02.611Z,32.37
2018-10-11T09:21:31.099Z,23.17
2018-10-11T09:23:59.330Z,23.23
2018-10-11T09:26:27.580Z,28.90
2018-10-11T09:28:56.638Z,23.00
2018-10-11T09:31:25.008Z,26.20
2018-10-11T09:33:53.808Z,34.80
2018-10-11T09:36:22.162Z,23.10
2018-10-11T09:38:51.156Z,20.87
2018-10-11T09:41:19.836Z,28.17
2018-10-11T09:43:48.346Z,19.67
2018-10-11T09:46:16.524Z,18.33
2018-10-11T09:48:44.783Z,28.33
2018-10-11T09:51:13.514Z,23.03
2018-10-11T09:53:42.035Z,25.37
2018-10-11T09:56:10.305Z,22.07
2018-10-11T09:58:38.763Z,21.87
2018-10-11T10:01:12.384Z,25.90
2018-10-11T10:03:40.750Z,34.50
2018-10-11T10:06:09.048Z,29.90
2018-10-11T10:08:37.514Z,23.53
2018-10-11T10:11:05.703Z,20.77
2018-10-11T10:13:34.307Z,24.00
2018-10-11T10:16:02.584Z,23.43
2018-10-11T10:18:30.945Z,26.73
2018-10-11T10:20:59.125Z,23.33
2018-10-11T10:23:27.440Z,21.23
2018-10-11T10:25:55.649Z,19.40
2018-10-11T10:28:31.099Z,23.67
2018-10-11T10:30:59.339Z,18.00
2018-10-11T10:33:27.536Z,20.07
2018-10-11T10:35:55.870Z,27.00
2018-10-11T10:38:24.239Z,24.40
2018-10-11T10:40:52.767Z,25.80
2018-10-11T10:43:21.353Z,24.43
2018-10-11T10:45:49.535Z,19.60
2018-10-11T10:48:17.731Z,30.43
2018-10-11T10:50:45.917Z,28.43
2018-10-11T10:53:14.122Z,19.93
2018-10-11T10:55:42.454Z,21.47
2018-10-11T10:58:10.651Z,28.23
2018-10-11T11:00:38.922Z,20.63
2018-10-11T11:03:07.478Z,21.57
2018-10-11T11:05:35.800Z,26.77
2018-10-11T11:08:04.082Z,23.60
2018-10-11T11:10:32.297Z,28.37
2018-10-11T11:13:00.544Z,22.47
2018-10-11T11:15:28.697Z,19.70
2018-10-11T11:17:56.941Z,24.60
2018-10-11T11:20:25.304Z,28.13
2018-10-11T11:22:53.542Z,19.80
2018-10-11T11:25:21.926Z,19.87
2018-10-11T11:27:50.076Z,18.60
2018-10-11T11:30:18.335Z,19.83
2018-10-11T11:32:46.885Z,22.23
2018-10-11T11:35:15.160Z,23.87
2018-10-11T11:37:43.377Z,25.40
2018-10-11T11:40:11.552Z,19.87
2018-10-11T11:42:39.852Z,26.10
2018-10-11T11:45:08.080Z,22.77
2018-10-11T11:47:39.758Z,18.63
2018-10-11T11:50:08.092Z,20.77
2018-10-11T11:52:36.357Z,22.40
2018-10-11T11:55:04.584Z,17.10
2018-10-11T11:57:32.824Z,23.93
2018-10-11T12:00:01.097Z,21.33
2018-10-11T12:02:29.295Z,26.73
2018-10-11T12:04:58.191Z,27.93
2018-10-11T12:07:26.374Z,25.30
2018-10-11T12:09:54.658Z,23.90
2018-10-11T12:13:08.728Z,23.57
2018-10-11T12:15:37.713Z,31.70
2018-10-11T12:18:06.758Z,26.20
2018-10-11T12:20:36.169Z,35.17
2018-10-11T12:23:05.453Z,21.60
2018-10-11T12:25:46.188Z,19.80
2018-10-11T12:28:14.439Z,32.73
2018-10-11T12:30:42.644Z,30.50
2018-10-11T12:33:10.946Z,21.07
2018-10-11T12:35:39.132Z,18.57
2018-10-11T12:38:07.482Z,26.57
2018-10-11T12:40:35.730Z,24.53
2018-10-11T12:43:03.904Z,28.10
2018-10-11T12:45:32.108Z,21.07
2018-10-11T12:48:00.363Z,28.93
2018-10-11T12:50:28.604Z,22.60
2018-10-11T12:52:57.012Z,22.40
2018-10-11T12:55:25.180Z,21.90
2018-10-11T12:57:53.382Z,21.63
2018-10-11T13:00:27.014Z,28.57
2018-10-11T13:02:55.376Z,21.53
2018-10-11T13:05:23.520Z,22.13
2018-10-11T13:07:51.837Z,23.80
2018-10-11T13:10:20.122Z,18.03
2018-10-11T13:12:49.482Z,22.73
2018-10-11T13:15:18.372Z,26.30
2018-10-11T13:17:46.552Z,20.70
2018-10-11T13:20:14.722Z,27.77
2018-10-11T13:22:43.069Z,21.73
2018-10-11T13:25:12.480Z,22.13
2018-10-11T13:27:40.678Z,21.87
2018-10-11T13:30:08.986Z,21.97
2018-10-11T13:32:37.242Z,21.37
2018-10-11T13:35:05.926Z,21.87
2018-10-11T13:37:34.176Z,23.03
2018-10-11T13:40:02.812Z,16.40
2018-10-11T13:42:30.987Z,21.53
2018-10-11T13:44:59.931Z,17.83
2018-10-11T13:47:28.298Z,28.50
2018-10-11T13:49:56.443Z,20.57
2018-10-11T13:52:24.717Z,34.10
2018-10-11T13:54:52.946Z,20.40
2018-10-11T13:57:25.932Z,20.60
2018-10-11T13:59:49.417Z,19.80
2018-10-11T14:02:17.638Z,20.80
2018-10-11T14:04:45.832Z,17.90
2018-10-11T14:07:13.986Z,21.23
2018-10-11T14:09:44.232Z,27.93
2018-10-11T14:12:12.415Z,28.07
2018-10-11T14:14:40.651Z,24.03
2018-10-11T14:17:08.929Z,26.93
2018-10-11T14:19:37.542Z,40.67
2018-10-11T14:22:05.788Z,22.33
2018-10-11T14:24:34.027Z,27.37
2018-10-11T14:27:02.264Z,18.77
2018-10-11T14:29:30.404Z,17.30
2018-10-11T14:31:58.799Z,24.97
2018-10-11T14:34:27.101Z,21.20
2018-10-11T14:36:55.401Z,21.37
2018-10-11T14:39:23.525Z,19.97
2018-10-11T14:41:51.896Z,19.30
2018-10-11T14:44:23.883Z,23.77
2018-10-11T14:46:52.089Z,18.07
2018-10-11T14:49:20.408Z,14.87
2018-10-11T14:51:48.830Z,22.43
2018-10-11T14:54:17.154Z,21.37
2018-10-11T14:56:52.213Z,18.37
2018-10-11T14:59:20.428Z,20.17
2018-10-11T15:01:48.590Z,22.73
2018-10-11T15:04:16.772Z,17.33
2018-10-11T15:06:45.096Z,18.87
2018-10-11T15:09:14.136Z,15.77
2018-10-11T15:11:42.581Z,15.13
2018-10-11T15:14:11.715Z,28.40
2018-10-11T15:16:39.981Z,24.93
2018-10-11T15:19:08.337Z,21.00
2018-10-11T15:21:37.051Z,22.13
2018-10-11T15:24:05.271Z,19.07
2018-10-11T15:26:40.422Z,21.27
2018-10-11T15:29:08.880Z,24.67
2018-10-11T15:31:37.059Z,15.50
2018-10-11T15:34:05.906Z,25.07
2018-10-11T15:36:34.181Z,26.63
2018-10-11T15:39:02.419Z,19.10
2018-10-11T15:41:30.671Z,38.30
2018-10-11T15:43:58.912Z,23.50
2018-10-11T15:46:27.160Z,23.90
2018-10-11T15:48:55.460Z,26.47
2018-10-11T15:51:23.832Z,22.07
2018-10-11T15:53:52.171Z,27.17
2018-10-11T15:56:20.456Z,24.93
2018-10-11T15:58:48.691Z,19.70
2018-10-11T16:01:17.071Z,22.87
2018-10-11T16:03:45.364Z,24.40
2018-10-11T16:06:15.744Z,23.27
2018-10-11T16:08:43.965Z,20.03
2018-10-11T16:11:12.193Z,24.33
2018-10-11T16:13:40.441Z,20.03
2018-10-11T16:16:08.690Z,19.40
2018-10-11T16:18:37.028Z,22.20
2018-10-11T16:21:05.295Z,19.67
2018-10-11T16:23:33.579Z,17.03
2018-10-11T16:26:01.855Z,22.13
2018-10-11T16:28:30.034Z,26.17
2018-10-11T16:33:25.410Z,26.60
2018-10-11T16:35:53.732Z,24.60
2018-10-11T16:38:22.008Z,41.90
2018-10-11T16:40:50.261Z,27.70
2018-10-11T16:43:18.523Z,44.90
2018-10-11T16:45:47.224Z,29.10
2018-10-11T16:48:15.418Z,26.93
2018-10-11T16:50:43.661Z,31.00
2018-10-11T16:53:11.904Z,18.47
2018-10-11T16:55:40.158Z,23.03
2018-10-11T16:58:09.040Z,25.40
2018-10-11T17:00:37.316Z,27.10
2018-10-11T17:03:05.833Z,38.77
2018-10-11T17:05:34.065Z,34.80
2018-10-11T17:08:03.973Z,28.90
2018-10-11T17:10:32.150Z,35.03
2018-10-11T17:13:00.340Z,32.93
2018-10-11T17:15:28.627Z,30.47
2018-10-11T17:17:56.786Z,30.97
2018-10-11T17:20:25.246Z,36.97
2018-10-11T17:22:53.529Z,48.17
2018-10-11T17:25:21.772Z,46.33
2018-10-11T17:27:50.080Z,36.53
2018-10-11T17:30:18.291Z,28.97
2018-10-11T17:32:46.497Z,28.43
2018-10-11T17:35:14.844Z,31.43
2018-10-11T17:37:43.289Z,27.77
2018-10-11T17:40:11.963Z,47.40
2018-10-11T17:42:40.192Z,34.10
2018-10-11T17:45:09.106Z,30.97
2018-10-11T17:47:37.711Z,22.70
2018-10-11T17:50:07.311Z,18.80
2018-10-11T17:52:35.555Z,18.43
2018-10-11T17:55:03.778Z,26.90
2018-10-11T17:57:36.056Z,35.90
2018-10-11T18:00:04.334Z,24.93
2018-10-11T18:02:33.116Z,24.40
2018-10-11T18:05:01.345Z,78.53
2018-10-11T18:07:30.452Z,44.83
2018-10-11T18:09:58.701Z,31.43
2018-10-11T18:12:26.946Z,20.87
2018-10-11T18:14:55.560Z,18.37
2018-10-11T18:17:23.802Z,17.17
2018-10-11T18:20:33.378Z,26.30
2018-10-11T18:23:02.243Z,26.67
2018-10-11T18:25:30.514Z,25.53
2018-10-11T18:27:59.946Z,24.93
2018-10-11T18:30:28.244Z,23.47
2018-10-11T18:32:56.499Z,28.30
2018-10-11T18:35:24.757Z,24.90
2018-10-11T18:37:53.210Z,36.50
2018-10-11T18:40:21.445Z,27.60
2018-10-11T18:42:49.727Z,25.73
2018-10-11T18:45:18.086Z,18.23
2018-10-11T18:47:46.326Z,21.73
2018-10-11T18:50:14.647Z,21.07
2018-10-11T18:52:42.977Z,19.27
2018-10-11T18:55:11.286Z,31.83
2018-10-11T18:57:39.525Z,21.87
2018-10-11T19:00:08.207Z,21.10
2018-10-11T19:02:36.488Z,29.43
2018-10-11T19:05:05.452Z,18.93
2018-10-11T19:07:33.747Z,34.50
2018-10-11T19:10:01.969Z,22.20
2018-10-11T19:12:30.204Z,20.93
2018-10-11T19:14:58.491Z,28.40
2018-10-11T19:17:26.782Z,26.40
2018-10-11T19:19:55.167Z,29.50
2018-10-11T19:22:23.532Z,24.73
2018-10-11T19:24:51.796Z,21.23
2018-10-11T19:27:20.147Z,23.70
2018-10-11T19:29:48.462Z,35.37
2018-10-11T19:32:16.761Z,28.20
2018-10-11T19:34:45.047Z,27.33
2018-10-11T19:37:13.405Z,30.67
2018-10-11T19:39:41.641Z,21.00
2018-10-11T19:42:09.932Z,22.33
2018-10-11T19:44:38.498Z,18.50
2018-10-11T19:47:06.793Z,24.60
2018-10-11T19:49:35.142Z,21.43
2018-10-11T19:52:03.417Z,18.40
2018-10-11T19:54:32.262Z,25.03
2018-10-11T19:57:00.536Z,25.67
2018-10-11T19:59:28.842Z,28.20
2018-10-11T20:01:57.077Z,25.97
2018-10-11T20:04:25.386Z,22.90
2018-10-11T20:06:53.729Z,25.50
2018-10-11T20:09:22.019Z,21.53
2018-10-11T20:11:50.282Z,19.23
2018-10-11T20:14:18.797Z,20.20
2018-10-11T20:16:47.128Z,22.17
2018-10-11T20:19:15.428Z,20.87
2018-10-11T20:21:43.722Z,22.57
2018-10-11T20:24:12.073Z,22.70
2018-10-11T20:26:40.426Z,23.57
2018-10-11T20:29:08.648Z,17.93
2018-10-11T20:31:36.920Z,22.87
2018-10-11T20:34:05.288Z,19.43
2018-10-11T20:36:33.519Z,27.53
2018-10-11T20:39:01.809Z,21.13
2018-10-11T20:41:30.138Z,23.97
2018-10-11T20:43:58.536Z,21.10
2018-10-11T20:46:27.283Z,18.13
2018-10-11T20:48:55.514Z,18.13
2018-10-11T20:51:23.732Z,32.03
2018-10-11T20:53:52.039Z,22.90
2018-10-11T20:56:20.475Z,27.57
2018-10-11T20:58:49.046Z,25.40
2018-10-11T21:01:17.281Z,20.73
2018-10-11T21:03:45.473Z,23.93
2018-10-11T21:06:13.635Z,17.97
2018-10-11T21:08:41.810Z,19.80
2018-10-11T21:11:10.124Z,20.17
2018-10-11T21:13:38.385Z,29.43
2018-10-11T21:16:06.927Z,26.60
2018-10-11T21:18:35.289Z,25.10
2018-10-11T21:21:03.613Z,20.97
2018-10-11T21:23:31.811Z,23.63
2018-10-11T21:26:00.039Z,22.67
2018-10-11T21:28:28.208Z,27.23
2018-10-11T21:30:56.410Z,23.63
2018-10-11T21:33:25.252Z,17.80
2018-10-11T21:35:53.442Z,19.33
2018-10-11T21:38:21.648Z,23.87
2018-10-11T21:40:49.899Z,18.57
2018-10-11T21:43:18.226Z,21.53
2018-10-11T21:45:46.390Z,18.97
2018-10-11T21:48:14.526Z,17.60
2018-10-11T21:50:43.056Z,18.27
2018-10-11T21:53:11.325Z,18.43
2018-10-11T21:55:39.493Z,19.37
2018-10-11T21:58:07.688Z,17.77
2018-10-11T22:00:41.386Z,22.03
2018-10-11T22:03:09.805Z,18.90
2018-10-11T22:05:38.056Z,23.20
2018-10-11T22:08:06.248Z,17.70
2018-10-11T22:10:34.399Z,16.17
2018-10-11T22:13:02.567Z,15.20
2018-10-11T22:15:30.870Z,16.53
2018-10-11T22:17:59.120Z,19.97
2018-10-11T22:20:27.286Z,20.70
2018-10-11T22:22:55.706Z,17.80
2018-10-11T22:25:24.348Z,17.03
2018-10-11T22:27:52.578Z,17.60
2018-10-11T22:30:20.770Z,16.93
2018-10-11T22:32:48.972Z,17.00
2018-10-11T22:35:17.110Z,14.30
2018-10-11T22:37:45.285Z,19.77
2018-10-11T22:40:13.464Z,18.70
2018-10-11T22:42:41.641Z,18.47
2018-10-11T22:45:09.793Z,17.90
2018-10-11T22:47:38.016Z,16.87
2018-10-11T22:50:06.204Z,20.23
2018-10-11T22:52:34.406Z,17.67
2018-10-11T22:55:02.538Z,14.47
2018-10-11T22:57:30.714Z,17.77
2018-10-11T22:59:58.957Z,20.73
2018-10-11T23:02:27.158Z,17.17
2018-10-11T23:04:55.349Z,18.37
2018-10-11T23:07:23.557Z,24.27
2018-10-11T23:09:51.729Z,22.10
2018-10-11T23:12:19.940Z,16.37
2018-10-11T23:14:48.213Z,17.17
2018-10-11T23:17:16.367Z,15.10
2018-10-11T23:19:44.568Z,19.83
2018-10-11T23:22:12.721Z,17.33
2018-10-11T23:24:40.875Z,18.60
2018-10-11T23:27:09.059Z,18.97
2018-10-11T23:29:37.270Z,14.77
2018-10-11T23:32:05.515Z,26.80
2018-10-11T23:34:33.673Z,22.70
2018-10-11T23:37:01.923Z,16.47
2018-10-11T23:39:30.069Z,14.33
2018-10-11T23:41:58.295Z,16.73
2018-10-11T23:44:26.514Z,17.83
2018-10-11T23:46:54.722Z,17.20
2018-10-11T23:49:22.918Z,17.27
2018-10-11T23:51:51.061Z,18.37
2018-10-11T23:54:19.270Z,13.40
2018-10-11T23:56:47.457Z,18.07
2018-10-11T23:59:15.643Z,19.50
